Time;durP1;ratioP1;P1;durP2;ratioP2;P2;SDS_P1;SDS_P2;PMS_P1;PMS_P2;Temp;Humidity;BMP_temperature;BMP_pressure;BME280_temperature;BME280_humidity;BME280_pressure;Samples;Min_cycle;Max_cycle;Signal;HPM_P1;HPM_P2
2022/11/08 00:02:26;;;;;;;20.73;14.60;;;;;;;8.71;100.00;100732.03;5050551;28;20063;-69
2022/11/08 00:04:52;;;;;;;21.40;14.40;;;;;;;8.62;100.00;100719.47;5050877;28;20028;-69
2022/11/08 00:15:32;;;;;;;20.10;15.27;;;;;;;8.60;100.00;100673.03;5050358;28;20051;-69
2022/11/08 00:17:57;;;;;;;23.63;16.40;;;;;;;8.66;100.00;100688.16;5049004;28;20037;-68
2022/11/08 00:20:23;;;;;;;23.88;16.85;;;;;;;7.61;100.00;100585.13;5048928;28;20078;-69
2022/11/08 00:22:48;;;;;;;25.73;17.48;;;;;;;8.08;100.00;100577.19;5050028;28;20033;-71
2022/11/08 00:25:13;;;;;;;25.55;17.30;;;;;;;8.58;100.00;100684.00;5050012;28;20025;-68
2022/11/08 00:27:39;;;;;;;24.98;17.75;;;;;;;7.88;100.00;100584.94;5050231;28;20025;-68
2022/11/08 00:30:05;;;;;;;23.85;17.00;;;;;;;8.68;100.00;100695.75;5050268;28;20470;-68
2022/11/08 00:32:30;;;;;;;23.30;17.35;;;;;;;8.52;100.00;100672.25;5049810;28;20487;-71
2022/11/08 00:34:56;;;;;;;22.85;16.77;;;;;;;8.79;100.00;100661.03;5050331;28;20025;-68
2022/11/08 00:37:22;;;;;;;23.27;17.13;;;;;;;8.56;100.00;100684.03;5048702;28;20029;-69
2022/11/08 00:39:48;;;;;;;25.50;16.98;;;;;;;8.89;100.00;100664.31;5050433;28;20546;-68
2022/11/08 00:42:13;;;;;;;22.50;16.80;;;;;;;8.41;100.00;100645.31;5052252;28;20036;-69
2022/11/08 00:44:39;;;;;;;23.38;17.00;;;;;;;8.59;100.00;100663.75;5052636;28;20028;-69
2022/11/08 00:47:05;;;;;;;21.25;15.98;;;;;;;8.43;100.00;100616.59;5054026;28;20123;-69
2022/11/08 00:49:30;;;;;;;23.02;16.88;;;;;;;7.97;100.00;100557.03;5054263;28;20037;-69
2022/11/08 00:51:55;;;;;;;22.58;17.20;;;;;;;7.96;100.00;100600.94;5052995;28;20032;-71
2022/11/08 00:54:21;;;;;;;23.35;17.65;;;;;;;8.50;100.00;100666.34;5053693;28;20531;-71
2022/11/08 00:56:47;;;;;;;24.48;17.17;;;;;;;8.59;100.00;100668.81;5054145;28;20124;-71
2022/11/08 00:59:15;;;;;;;23.15;16.85;;;;;;;8.16;100.00;100659.00;5053801;28;20071;-71
2022/11/08 01:01:41;;;;;;;20.50;16.23;;;;;;;7.78;100.00;100646.59;5053027;28;20033;-69
2022/11/08 01:04:09;;;;;;;20.55;15.77;;;;;;;7.75;100.00;100598.53;5053856;28;20116;-68
2022/11/08 01:06:35;;;;;;;21.40;16.25;;;;;;;7.98;100.00;100661.66;5054051;28;20132;-69
2022/11/08 01:09:01;;;;;;;23.65;16.02;;;;;;;8.24;100.00;100673.28;5052302;28;20534;-71
2022/11/08 01:11:27;;;;;;;21.17;15.35;;;;;;;8.12;100.00;100616.84;5053685;28;20119;-68
2022/11/08 01:13:56;;;;;;;20.45;15.18;;;;;;;7.98;100.00;100642.25;5054038;28;20056;-69
2022/11/08 01:16:24;;;;;;;24.55;15.60;;;;;;;8.42;100.00;100660.50;5053907;28;20028;-69
2022/11/08 01:18:52;;;;;;;22.02;14.80;;;;;;;8.10;100.00;100644.69;5053618;28;20037;-69
2022/11/08 01:21:18;;;;;;;20.20;14.80;;;;;;;8.33;100.00;100632.72;5053530;28;20032;-69
2022/11/08 01:23:44;;;;;;;23.42;15.07;;;;;;;8.03;100.00;100614.34;5053703;28;20587;-69
2022/11/08 01:26:13;;;;;;;19.52;14.38;;;;;;;8.26;100.00;100626.00;5053512;28;20033;-69
2022/11/08 01:28:38;;;;;;;19.25;15.38;;;;;;;8.22;100.00;100624.31;5053377;28;20040;-69
2022/11/08 01:31:07;;;;;;;21.52;15.65;;;;;;;8.51;100.00;100639.31;5053423;28;20419;-69
2022/11/08 01:33:33;;;;;;;23.23;16.05;;;;;;;8.44;100.00;100646.13;5053350;28;20094;-70
2022/11/08 01:35:59;;;;;;;24.60;16.45;;;;;;;8.48;100.00;100645.25;5053646;28;20033;-71
2022/11/08 01:38:25;;;;;;;23.27;17.95;;;;;;;7.65;100.00;100562.31;5053456;28;20025;-69
2022/11/08 01:40:51;;;;;;;23.38;17.33;;;;;;;8.31;100.00;100642.03;5051668;28;20139;-72
2022/11/08 01:43:25;;;;;;;21.20;15.98;;;;;;;8.06;100.00;100594.91;5051550;28;20025;-70
2022/11/08 01:46:12;;;;;;;19.75;15.02;;;;;;;8.38;100.00;100655.47;5051174;28;20028;-69
2022/11/08 01:48:42;;;;;;;20.45;15.73;;;;;;;7.94;100.00;100576.47;5052727;28;20025;-69
2022/11/08 01:51:11;;;;;;;20.27;15.75;;;;;;;8.21;100.00;100642.91;5052809;28;20051;-69
2022/11/08 01:53:37;;;;;;;28.55;17.40;;;;;;;8.35;100.00;100600.63;5052154;28;20025;-69
2022/11/08 01:56:03;;;;;;;23.63;16.52;;;;;;;8.55;100.00;100649.44;5051572;28;20419;-70
2022/11/08 01:58:32;;;;;;;21.25;16.13;;;;;;;8.12;100.00;100577.13;5052827;28;20116;-69
2022/11/08 02:01:00;;;;;;;24.02;16.95;;;;;;;8.47;100.00;100625.00;5052654;28;20094;-69
2022/11/08 02:03:28;;;;;;;24.25;16.00;;;;;;;8.67;100.00;100640.88;5053237;28;20044;-69
2022/11/08 02:05:53;;;;;;;20.90;16.10;;;;;;;8.16;100.00;100648.88;5052638;28;20040;-69
2022/11/08 02:08:27;;;;;;;21.63;16.45;;;;;;;7.60;100.00;100526.09;5051809;28;20037;-69
2022/11/08 02:10:53;;;;;;;23.10;16.13;;;;;;;7.95;100.00;100581.50;5051898;28;20473;-69
2022/11/08 02:13:22;;;;;;;23.48;16.30;;;;;;;8.08;100.00;100622.78;5052797;28;20032;-69
2022/11/08 02:15:48;;;;;;;24.77;16.92;;;;;;;8.42;100.00;100629.25;5045967;28;20437;-69
2022/11/08 02:18:15;;;;;;;23.20;17.33;;;;;;;7.89;100.00;100568.91;5031156;28;20033;-69
2022/11/08 02:20:59;;;;;;;24.85;17.95;;;;;;;8.35;100.00;100642.84;5032810;28;20113;-70
2022/11/08 02:23:48;;;;;;;24.02;17.33;;;;;;;8.06;100.00;100579.72;5032071;28;20456;-68
2022/11/08 02:26:16;;;;;;;22.65;17.33;;;;;;;8.02;100.00;100575.56;5031144;28;20030;-69
2022/11/08 02:28:44;;;;;;;24.20;17.50;;;;;;;8.33;100.00;100640.31;5032211;28;20040;-68
2022/11/08 02:31:11;;;;;;;23.60;17.83;;;;;;;8.06;100.00;100578.91;5032011;28;20515;-68
2022/11/08 02:33:39;;;;;;;22.42;17.08;;;;;;;7.81;100.00;100566.44;5032472;28;20029;-69
2022/11/08 02:36:06;;;;;;;23.75;17.15;;;;;;;8.12;100.00;100594.84;5032633;28;20034;-68
2022/11/08 02:38:37;;;;;;;24.08;17.85;;;;;;;8.38;100.00;100635.19;5032198;28;20033;-69
2022/11/08 02:41:03;;;;;;;22.73;18.75;;;;;;;8.40;100.00;100652.06;5032382;28;20025;-68
2022/11/08 02:43:29;;;;;;;24.40;17.58;;;;;;;8.20;100.00;100635.34;5030633;28;20037;-69
2022/11/08 02:45:57;;;;;;;25.40;17.50;;;;;;;7.62;100.00;100546.34;5032078;28;20040;-68
2022/11/08 02:48:22;;;;;;;23.63;17.55;;;;;;;7.80;100.00;100589.22;5032145;28;20036;-69
2022/11/08 02:50:48;;;;;;;22.67;15.93;;;;;;;8.17;100.00;100660.69;5030737;28;20037;-69
2022/11/08 02:53:13;;;;;;;24.63;17.25;;;;;;;7.78;100.00;100603.59;5031617;28;20057;-71
2022/11/08 02:55:38;;;;;;;23.48;16.75;;;;;;;7.74;100.00;100585.03;5032056;28;20093;-69
2022/11/08 02:58:04;;;;;;;22.73;16.42;;;;;;;7.67;100.00;100572.44;5032053;28;20030;-70
2022/11/08 03:00:29;;;;;;;24.08;17.15;;;;;;;7.89;100.00;100662.56;5032082;28;20121;-69
2022/11/08 03:02:56;;;;;;;26.90;17.35;;;;;;;7.80;100.00;100606.94;5067460;28;20040;-69
2022/11/08 03:05:22;;;;;;;28.30;19.10;;;;;;;8.03;100.00;100639.69;5049439;28;20035;-69
2022/11/08 03:07:48;;;;;;;59.65;39.42;;;;;;;8.01;100.00;100667.53;5051201;28;20114;-69
2022/11/08 03:10:14;;;;;;;31.58;21.00;;;;;;;7.39;100.00;100578.53;5051263;28;20094;-69
2022/11/08 03:12:40;;;;;;;24.25;17.42;;;;;;;7.36;100.00;100586.97;5051740;28;20108;-69
2022/11/08 03:15:07;;;;;;;24.15;17.42;;;;;;;7.16;100.00;100538.19;5050284;28;20052;-67
2022/11/08 03:17:33;;;;;;;38.10;29.55;;;;;;;7.55;100.00;100586.00;5049730;28;20539;-68
2022/11/08 03:19:58;;;;;;;78.35;54.95;;;;;;;8.07;100.00;100664.97;5051362;28;20036;-68
2022/11/08 03:22:24;;;;;;;121.32;93.78;;;;;;;8.16;100.00;100661.53;5051636;28;20098;-68
2022/11/08 03:24:50;;;;;;;116.53;90.35;;;;;;;7.78;100.00;100604.41;5051416;28;20029;-68
2022/11/08 03:27:17;;;;;;;83.97;62.30;;;;;;;7.66;100.00;100583.41;5051013;28;20464;-69
2022/11/08 03:29:44;;;;;;;68.55;50.22;;;;;;;7.76;100.00;100601.03;5049763;28;20029;-69
2022/11/08 03:32:09;;;;;;;57.35;43.58;;;;;;;7.65;100.00;100624.72;5051141;28;20039;-69
2022/11/08 03:34:34;;;;;;;33.08;24.13;;;;;;;7.68;100.00;100599.44;5050864;28;20033;-69
2022/11/08 03:37:00;;;;;;;30.48;20.98;;;;;;;7.71;100.00;100591.81;5050689;28;20859;-70
2022/11/08 03:39:25;;;;;;;29.63;20.27;;;;;;;7.38;100.00;100597.91;5051077;28;20029;-70
2022/11/08 03:41:51;;;;;;;28.25;18.77;;;;;;;7.47;100.00;100620.63;5048419;28;20416;-69
2022/11/08 03:44:16;;;;;;;20.75;15.27;;;;;;;7.43;100.00;100608.81;5042020;28;20108;-69
2022/11/08 03:46:41;;;;;;;20.77;14.48;;;;;;;6.86;100.00;100572.00;5050904;28;20074;-70
2022/11/08 03:49:07;;;;;;;19.23;14.05;;;;;;;7.61;100.00;100611.25;5050775;28;20094;-70
2022/11/08 03:51:32;;;;;;;21.45;14.35;;;;;;;8.44;100.00;100647.81;5050447;28;20025;-73
2022/11/08 03:53:58;;;;;;;21.27;15.45;;;;;;;9.56;100.00;100594.16;5050899;28;20035;-69
2022/11/08 03:56:23;;;;;;;19.88;14.48;;;;;;;7.92;100.00;100654.09;5049141;28;20133;-68
2022/11/08 03:58:49;;;;;;;20.42;14.82;;;;;;;7.72;100.00;100674.47;5050651;28;20037;-69
2022/11/08 04:01:14;;;;;;;19.38;15.13;;;;;;;7.48;100.00;100606.28;5049216;28;20032;-70
2022/11/08 04:03:40;;;;;;;21.45;15.70;;;;;;;7.15;100.00;100614.03;5050219;28;20103;-70
2022/11/08 04:06:06;;;;;;;24.60;16.55;;;;;;;7.36;100.00;100632.50;5050266;28;20025;-68
2022/11/08 04:08:31;;;;;;;21.25;15.57;;;;;;;7.56;100.00;100594.44;5050452;28;20036;-68
2022/11/08 04:15:13;;;;;;;23.70;15.85;;;;;;;7.64;100.00;100664.41;5050415;28;20388;-69
2022/11/08 04:16:33;;;;;;;21.88;16.98;;;;;;;7.92;100.00;100657.50;5049281;28;20752;-70
2022/11/08 04:21:45;;;;;;;25.50;17.05;;;;;;;7.89;100.00;100665.09;5050162;28;20137;-70
2022/11/08 04:24:11;;;;;;;26.05;15.85;;;;;;;7.37;100.00;100591.16;5048445;28;20029;-70
2022/11/08 04:26:37;;;;;;;27.17;16.02;;;;;;;7.93;100.00;100655.78;5049630;28;20431;-70
2022/11/08 04:29:02;;;;;;;25.73;16.33;;;;;;;7.41;100.00;100599.56;5050014;28;20033;-70
2022/11/08 04:31:28;;;;;;;24.45;17.10;;;;;;;7.78;100.00;100660.06;5050003;28;20419;-70
2022/11/08 04:33:53;;;;;;;25.40;17.13;;;;;;;7.35;100.00;100586.97;5047991;28;20115;-70
2022/11/08 04:36:19;;;;;;;24.80;17.48;;;;;;;7.43;100.00;100596.19;5050020;28;20492;-70
2022/11/08 04:38:49;;;;;;;23.65;16.63;;;;;;;7.11;100.00;100577.78;5048754;28;20130;-71
2022/11/08 04:41:16;;;;;;;23.20;17.00;;;;;;;7.55;100.00;100596.13;5049832;28;20116;-70
2022/11/08 04:43:42;;;;;;;24.83;17.05;;;;;;;7.23;100.00;100587.84;5049325;28;20033;-67
2022/11/08 04:46:09;;;;;;;25.27;17.38;;;;;;;7.40;100.00;100603.81;5049299;28;20419;-69
2022/11/08 04:48:35;;;;;;;24.50;17.00;;;;;;;7.78;100.00;100665.13;5049028;28;20535;-69
2022/11/08 04:51:28;;;;;;;25.15;18.05;;;;;;;7.47;100.00;100614.72;5049320;28;20121;-68
2022/11/08 04:53:58;;;;;;;26.13;17.25;;;;;;;7.46;100.00;100610.50;5049483;28;20388;-68
2022/11/08 04:56:26;;;;;;;22.95;16.73;;;;;;;7.38;100.00;100610.56;5048185;28;20116;-67
2022/11/08 04:58:54;;;;;;;25.15;17.65;;;;;;;7.75;100.00;100629.75;5049086;28;20033;-67
2022/11/08 05:01:25;;;;;;;21.52;16.30;;;;;;;7.69;100.00;100672.78;5049529;28;20024;-69
2022/11/08 05:03:52;;;;;;;24.40;17.35;;;;;;;7.78;100.00;100689.63;5049365;28;20029;-68
2022/11/08 05:06:27;;;;;;;30.50;17.85;;;;;;;7.86;100.00;100688.72;5048566;28;20041;-70
2022/11/08 05:08:54;;;;;;;27.55;18.48;;;;;;;6.88;100.00;100565.25;5049853;28;20044;-68
2022/11/08 05:11:21;;;;;;;25.02;16.90;;;;;;;8.45;100.00;100607.28;5049881;28;20079;-69
2022/11/08 05:13:48;;;;;;;25.83;17.70;;;;;;;7.86;100.00;100698.03;5049547;28;20095;-72
2022/11/08 05:16:17;;;;;;;29.08;18.50;;;;;;;7.93;100.00;100692.06;5048700;28;20028;-70
2022/11/08 05:18:43;;;;;;;28.25;19.13;;;;;;;7.99;100.00;100703.84;5044292;28;20029;-70
2022/11/08 05:23:59;;;;;;;34.42;21.58;;;;;;;8.07;100.00;100697.88;5049713;28;20043;-67
2022/11/08 05:26:27;;;;;;;34.00;23.73;;;;;;;7.61;100.00;100635.72;5047763;28;20510;-69
2022/11/08 05:28:53;;;;;;;34.75;19.88;;;;;;;9.18;100.00;100688.50;5049988;28;20454;-70
2022/11/08 05:31:18;;;;;;;35.50;22.63;;;;;;;8.53;100.00;100627.47;5033582;28;20032;-70
2022/11/08 05:33:44;;;;;;;38.53;23.35;;;;;;;8.09;100.00;100701.25;5051554;28;20029;-68
2022/11/08 05:36:12;;;;;;;35.50;22.30;;;;;;;8.19;100.00;100681.75;5051056;28;20111;-68
2022/11/08 05:38:38;;;;;;;34.63;22.10;;;;;;;8.44;100.00;100698.47;5052893;28;20035;-69
2022/11/08 05:41:06;;;;;;;30.08;21.67;;;;;;;7.93;100.00;100643.97;5053091;28;20032;-68
2022/11/08 05:43:32;;;;;;;30.13;20.83;;;;;;;8.30;100.00;100647.13;5052535;28;20064;-69
2022/11/08 05:45:58;;;;;;;30.20;20.58;;;;;;;7.93;100.00;100602.63;5052229;28;20025;-68
2022/11/08 05:48:23;;;;;;;32.60;20.15;;;;;;;8.35;100.00;100643.69;5053164;28;20036;-68
2022/11/08 05:50:49;;;;;;;33.40;21.48;;;;;;;8.43;100.00;100648.69;5051390;28;20415;-71
2022/11/08 05:53:15;;;;;;;27.58;20.23;;;;;;;8.64;100.00;100721.97;5052722;28;20549;-68
2022/11/08 05:55:40;;;;;;;31.02;20.17;;;;;;;8.50;100.00;100658.75;5053048;28;20474;-68
2022/11/08 05:58:06;;;;;;;30.42;21.00;;;;;;;9.05;100.00;100716.56;5051147;28;20120;-68
2022/11/08 06:00:31;;;;;;;33.60;20.95;;;;;;;8.51;100.00;100706.06;5052556;28;20033;-68
2022/11/08 06:02:57;;;;;;;36.58;21.58;;;;;;;8.31;100.00;100722.25;5052855;28;20025;-68
2022/11/08 06:05:22;;;;;;;31.60;22.00;;;;;;;8.11;100.00;100663.25;5052533;28;20048;-70
2022/11/08 06:07:47;;;;;;;30.08;21.33;;;;;;;8.53;100.00;100734.75;5052380;28;20041;-68
2022/11/08 06:10:13;;;;;;;30.33;21.67;;;;;;;8.05;100.00;100655.69;5050674;28;20215;-67
2022/11/08 06:12:38;;;;;;;33.20;21.63;;;;;;;8.48;100.00;100731.41;5052415;28;20102;-67
2022/11/08 06:15:06;;;;;;;33.80;21.02;;;;;;;7.49;100.00;100621.44;5052480;28;20407;-68
2022/11/08 06:17:31;;;;;;;27.90;21.02;;;;;;;7.83;100.00;100690.44;5052729;28;20029;-67
2022/11/08 06:19:56;;;;;;;29.70;21.55;;;;;;;8.16;100.00;100747.66;5052378;28;20047;-67
2022/11/08 06:22:22;;;;;;;30.95;20.95;;;;;;;8.14;100.00;100643.00;5052446;28;20027;-68
2022/11/08 06:24:47;;;;;;;30.63;20.58;;;;;;;8.75;100.00;100741.31;5052192;28;20082;-67
2022/11/08 06:27:14;;;;;;;33.53;20.60;;;;;;;8.28;100.00;100705.38;5050601;28;20029;-70
2022/11/08 06:29:41;;;;;;;30.55;21.35;;;;;;;8.42;100.00;100711.16;5050854;28;20123;-68
2022/11/08 06:32:08;;;;;;;29.55;21.77;;;;;;;8.47;100.00;100742.41;5052029;28;20029;-68
2022/11/08 06:34:34;;;;;;;32.17;21.27;;;;;;;8.43;100.00;100753.41;5050602;28;20040;-68
2022/11/08 06:36:59;;;;;;;31.00;20.45;;;;;;;8.99;100.00;100736.91;5051771;28;20044;-67
2022/11/08 06:39:25;;;;;;;29.08;20.00;;;;;;;8.69;100.00;100769.25;5051889;28;20116;-68
2022/11/08 06:41:50;;;;;;;29.52;20.90;;;;;;;8.70;100.00;100712.63;5050720;28;20029;-67
2022/11/08 06:44:16;;;;;;;29.55;21.63;;;;;;;8.52;100.00;100743.19;5052009;28;20055;-67
2022/11/08 06:46:41;;;;;;;31.05;22.02;;;;;;;9.01;100.00;100771.53;5051551;28;20376;-68
2022/11/08 06:49:06;;;;;;;36.50;21.65;;;;;;;9.26;100.00;100774.66;5051561;28;20025;-67
2022/11/08 06:51:32;;;;;;;31.98;21.88;;;;;;;9.31;100.00;100763.63;5051722;28;20415;-68
2022/11/08 06:53:58;;;;;;;29.85;21.95;;;;;;;8.83;100.00;100697.31;5051465;28;20411;-68
2022/11/08 06:56:23;;;;;;;32.22;21.88;;;;;;;9.66;100.00;100781.00;5050364;28;20025;-68
2022/11/08 06:58:50;;;;;;;29.65;20.80;;;;;;;9.37;100.00;100729.72;5051472;28;20113;-68
2022/11/08 07:01:17;;;;;;;30.48;21.52;;;;;;;9.05;100.00;100669.19;5051617;28;20033;-67
2022/11/08 07:03:42;;;;;;;29.75;21.25;;;;;;;9.38;100.00;100744.94;5050005;28;20067;-68
2022/11/08 07:06:08;;;;;;;32.20;21.73;;;;;;;9.06;100.00;100695.41;5051386;28;20108;-68
2022/11/08 07:08:34;;;;;;;29.50;21.33;;;;;;;9.27;100.00;100712.94;5051385;28;20052;-68
2022/11/08 07:10:59;;;;;;;31.35;21.88;;;;;;;10.13;100.00;100788.94;5049893;28;20543;-68
2022/11/08 07:13:25;;;;;;;30.38;21.45;;;;;;;9.94;100.00;100731.56;5051483;28;20035;-71
2022/11/08 07:15:51;;;;;;;32.70;21.38;;;;;;;10.78;100.00;100785.41;5051029;28;20034;-68
2022/11/08 07:18:18;;;;;;;32.80;21.35;;;;;;;10.94;100.00;100786.84;5051310;28;20369;-69
2022/11/08 07:20:44;;;;;;;28.55;20.17;;;;;;;10.79;100.00;100765.91;5051038;28;20028;-71
2022/11/08 07:23:10;;;;;;;30.73;19.67;;;;;;;11.15;100.00;100800.94;5050991;28;20032;-68
2022/11/08 07:25:36;;;;;;;33.15;20.00;;;;;;;10.26;100.00;100733.72;5051388;28;20112;-68
2022/11/08 07:28:04;;;;;;;28.27;19.38;;;;;;;10.58;100.00;100791.69;5051180;28;20357;-70
2022/11/08 07:30:30;;;;;;;33.03;20.85;;;;;;;10.31;100.00;100808.16;5051170;28;20138;-69
2022/11/08 07:32:56;;;;;;;27.02;19.80;;;;;;;10.58;100.00;100801.88;5051321;28;20127;-69
2022/11/08 07:35:23;;;;;;;27.23;19.60;;;;;;;10.37;100.00;100796.22;5049503;28;20112;-68
2022/11/08 07:37:48;;;;;;;27.75;19.63;;;;;;;10.38;100.00;100787.72;5050619;28;20462;-70
2022/11/08 07:40:14;;;;;;;30.38;19.98;;;;;;;10.36;100.00;100730.13;5050544;28;20025;-70
2022/11/08 07:42:40;;;;;;;29.70;19.20;;;;;;;10.41;100.00;100794.47;5050776;28;20094;-69
2022/11/08 07:45:07;;;;;;;31.98;19.95;;;;;;;10.62;100.00;100790.78;5051017;28;20106;-69
2022/11/08 07:47:33;;;;;;;30.25;19.15;;;;;;;10.69;100.00;100752.53;5050701;28;20033;-69
2022/11/08 07:49:59;;;;;;;26.50;18.45;;;;;;;10.49;100.00;100718.94;5050815;28;20051;-69
2022/11/08 07:52:24;;;;;;;27.05;18.63;;;;;;;10.46;100.00;100785.91;5050006;28;20591;-69
2022/11/08 07:54:50;;;;;;;26.80;18.42;;;;;;;10.20;100.00;100685.50;5048820;28;20510;-69
2022/11/08 07:57:15;;;;;;;29.15;17.17;;;;;;;10.46;100.00;100729.97;5050422;28;20079;-69
2022/11/08 07:59:40;;;;;;;24.67;17.92;;;;;;;10.86;100.00;100792.94;5050516;28;20021;-69
2022/11/08 08:02:09;;;;;;;25.02;18.55;;;;;;;10.69;100.00;100784.72;5049187;28;20029;-69
2022/11/08 08:04:34;;;;;;;25.83;16.95;;;;;;;10.69;100.00;100742.34;5049005;28;20021;-69
2022/11/08 08:07:00;;;;;;;25.80;17.40;;;;;;;10.85;100.00;100788.72;5050392;28;20415;-70
2022/11/08 08:09:25;;;;;;;24.52;17.50;;;;;;;10.85;100.00;100789.56;5050021;28;20063;-69
2022/11/08 08:11:52;;;;;;;24.10;17.25;;;;;;;10.71;100.00;100776.22;5050456;28;20493;-68
2022/11/08 08:14:17;;;;;;;28.52;16.95;;;;;;;10.86;100.00;100775.13;5050413;28;20115;-69
2022/11/08 08:16:43;;;;;;;27.13;17.05;;;;;;;10.74;100.00;100724.44;5049228;28;20028;-69
2022/11/08 08:19:08;;;;;;;23.67;17.50;;;;;;;11.07;100.00;100772.22;5050691;28;20576;-68
2022/11/08 08:21:34;;;;;;;21.60;16.08;;;;;;;11.13;100.00;100769.59;5050716;28;20124;-69
2022/11/08 08:23:59;;;;;;;23.27;16.08;;;;;;;11.07;100.00;100744.25;5050075;28;20029;-71
2022/11/08 08:26:24;;;;;;;24.23;16.83;;;;;;;11.34;100.00;100725.91;5050191;28;20083;-69
2022/11/08 08:28:50;;;;;;;25.25;17.00;;;;;;;11.14;100.00;100722.91;5050678;28;20124;-69
2022/11/08 08:31:16;;;;;;;23.98;16.42;;;;;;;11.51;100.00;100767.16;5049951;28;20041;-69
2022/11/08 08:33:41;;;;;;;25.05;15.93;;;;;;;11.64;100.00;100772.88;5050692;28;20029;-69
2022/11/08 08:36:07;;;;;;;25.17;16.38;;;;;;;11.55;100.00;100719.59;5050289;28;20033;-69
2022/11/08 08:38:33;;;;;;;26.17;15.77;;;;;;;12.03;100.00;100785.66;5049820;28;20029;-70
2022/11/08 08:41:00;;;;;;;21.38;16.08;;;;;;;11.72;100.00;100741.31;5049103;28;20033;-70
2022/11/08 08:43:26;;;;;;;20.50;15.60;;;;;;;12.09;100.00;100782.16;5050163;28;20082;-69
2022/11/08 08:45:53;;;;;;;19.65;13.77;;;;;;;12.49;100.00;100794.88;5049017;28;20032;-69
2022/11/08 08:48:19;;;;;;;18.08;11.57;;;;;;;12.38;100.00;100789.19;5050257;28;20029;-70
2022/11/08 08:50:45;;;;;;;19.63;12.15;;;;;;;12.28;100.00;100746.91;5050341;28;20090;-69
2022/11/08 08:53:11;;;;;;;18.83;11.18;;;;;;;12.61;100.00;100754.63;5050079;28;20037;-69
2022/11/08 08:55:38;;;;;;;20.25;12.88;;;;;;;12.51;100.00;100798.22;5048723;28;20112;-69
2022/11/08 08:58:04;;;;;;;24.90;13.45;;;;;;;12.99;100.00;100785.13;5049970;28;20056;-70
2022/11/08 09:00:30;;;;;;;20.08;12.55;;;;;;;12.97;100.00;100763.09;5048728;28;20065;-70
2022/11/08 09:03:04;;;;;;;21.50;13.18;;;;;;;12.26;100.00;100664.53;5051379;28;20087;-69
2022/11/08 09:05:31;;;;;;;22.55;12.73;;;;;;;12.62;100.00;100732.47;5053939;28;20033;-69
2022/11/08 09:07:56;;;;;;;20.17;12.93;;;;;;;12.55;100.00;100721.59;5051733;28;20053;-69
2022/11/08 09:10:22;;;;;;;23.48;12.65;;;;;;;12.93;100.00;100777.63;5051955;28;20045;-69
2022/11/08 09:12:48;;;;;;;23.83;12.50;;;;;;;12.14;100.00;100669.03;5053279;28;20029;-71
2022/11/08 09:15:14;;;;;;;20.13;12.55;;;;;;;12.76;100.00;100702.38;5053725;28;20033;-68
2022/11/08 09:17:39;;;;;;;24.67;12.77;;;;;;;12.94;100.00;100709.56;5053440;28;20112;-69
2022/11/08 09:20:05;;;;;;;17.17;12.77;;;;;;;12.75;100.00;100706.66;5053855;28;20035;-69
2022/11/08 09:22:32;;;;;;;19.27;12.23;;;;;;;12.96;100.00;100763.97;5053094;28;20495;-69
2022/11/08 09:24:58;;;;;;;18.42;12.38;;;;;;;12.86;100.00;100742.09;5053548;28;20107;-70
2022/11/08 09:27:23;;;;;;;18.20;12.50;;;;;;;13.07;100.00;100757.72;5052020;28;20199;-69
2022/11/08 09:29:49;;;;;;;19.00;12.35;;;;;;;13.53;100.00;100748.84;5053258;28;20032;-70
2022/11/08 09:32:14;;;;;;;17.70;12.00;;;;;;;13.59;100.00;100780.19;5053594;28;20021;-69
2022/11/08 09:34:39;;;;;;;18.65;11.88;;;;;;;13.35;100.00;100732.31;5053444;28;20033;-70
2022/11/08 09:37:05;;;;;;;19.83;11.73;;;;;;;13.49;100.00;100770.28;5053323;28;20029;-69
2022/11/08 09:39:30;;;;;;;19.98;12.18;;;;;;;12.73;100.00;100653.97;5053246;28;20135;-69
2022/11/08 09:42:28;;;;;;;17.05;12.18;;;;;;;13.83;100.00;100766.72;5053295;28;20053;-69
2022/11/08 09:45:02;;;;;;;20.25;12.65;;;;;;;13.83;100.00;100764.16;5043149;28;20037;-70
2022/11/08 09:47:33;;;;;;;19.15;12.77;;;;;;;13.35;100.00;100686.34;5053248;28;20503;-69
2022/11/08 09:49:58;;;;;;;18.02;12.30;;;;;;;13.79;100.00;100766.84;5051652;28;20066;-70
2022/11/08 09:52:27;;;;;;;20.80;12.77;;;;;;;13.78;100.00;100745.59;5053070;28;20037;-70
2022/11/08 09:55:03;;;;;;;23.60;12.85;;;;;;;13.68;100.00;100689.66;5052844;28;20104;-69
2022/11/08 09:57:48;;;;;;;23.27;13.88;;;;;;;13.67;100.00;100709.25;5053028;28;20032;-71
2022/11/08 10:00:14;;;;;;;22.15;13.88;;;;;;;13.54;100.00;100677.28;5051803;28;20573;-70
2022/11/08 10:02:39;;;;;;;18.33;14.07;;;;;;;14.28;100.00;100761.19;5052506;28;20064;-71
2022/11/08 10:05:11;;;;;;;22.50;14.65;;;;;;;14.11;100.00;100679.81;5051492;28;20128;-69
2022/11/08 10:07:55;;;;;;;;;;;;;;;14.41;100.00;100757.34;5051770;28;20581;-70
2022/11/08 10:10:54;;;;;;;26.52;15.50;;;;;;;14.67;100.00;100754.81;5052384;28;19921;-70
2022/11/08 10:13:25;;;;;;;24.65;16.42;;;;;;;14.46;100.00;100755.50;5052706;28;20499;-71
2022/11/08 10:16:17;;;;;;;28.90;19.10;;;;;;;13.72;100.00;100632.47;5052325;28;20048;-69
2022/11/08 10:19:01;;;;;;;32.60;19.25;;;;;;;14.57;100.00;100749.16;5053088;28;20037;-70
2022/11/08 10:21:52;;;;;;;26.48;18.33;;;;;;;14.42;100.00;100752.16;5052732;28;20056;-69
2022/11/08 10:24:40;;;;;;;26.13;18.30;;;;;;;14.39;100.00;100741.22;5052869;28;20112;-70
2022/11/08 10:27:36;;;;;;;29.63;18.95;;;;;;;14.56;100.00;100747.47;5052294;28;20104;-71
2022/11/08 10:30:32;;;;;;;31.88;18.33;;;;;;;14.72;100.00;100733.28;5050061;28;20041;-71
2022/11/08 10:32:58;;;;;;;25.65;18.20;;;;;;;14.77;100.00;100670.00;5048875;28;20079;-70
2022/11/08 10:35:40;;;;;;;30.45;17.85;;;;;;;15.06;100.00;100692.03;5052329;28;20111;-70
2022/11/08 10:38:32;;;;;;;33.75;20.02;;;;;;;15.18;100.00;100693.31;5051338;28;20036;-70
2022/11/08 10:41:33;;;;;;;30.52;19.88;;;;;;;15.65;100.00;100717.28;5052438;28;20036;-72
2022/11/08 10:44:14;;;;;;;34.30;20.08;;;;;;;15.67;100.00;100741.13;5035410;28;20060;-71
2022/11/08 10:46:45;;;;;;;31.38;20.13;;;;;;;15.03;100.00;100671.66;5052351;28;20617;-71
2022/11/08 10:49:21;;;;;;;29.85;20.05;;;;;;;15.20;100.00;100669.31;5052326;28;20044;-75
2022/11/08 10:51:50;;;;;;;35.13;20.35;;;;;;;15.45;100.00;100662.44;5052058;28;20033;-71
2022/11/08 10:54:41;;;;;;;30.10;18.75;;;;;;;16.19;100.00;100721.13;5052187;28;20021;-70
2022/11/08 10:57:08;;;;;;;32.88;19.08;;;;;;;16.57;100.00;100719.66;5051688;28;20032;-70
2022/11/08 10:59:34;;;;;;;27.70;18.25;;;;;;;16.54;100.00;100711.25;5052102;28;20115;-70
2022/11/08 11:01:59;;;;;;;29.52;18.27;;;;;;;15.79;100.00;100656.88;5051710;28;20039;-70
2022/11/08 11:04:28;;;;;;;29.15;17.10;;;;;;;16.35;100.00;100713.66;5050591;28;20033;-71
2022/11/08 11:06:54;;;;;;;27.52;17.65;;;;;;;16.68;100.00;100699.50;5050528;28;20036;-70
2022/11/08 11:09:21;;;;;;;27.85;18.45;;;;;;;16.73;100.00;100705.28;5050475;28;20427;-70
2022/11/08 11:11:55;;;;;;;31.92;18.55;;;;;;;16.71;100.00;100680.56;5050604;28;20029;-70
2022/11/08 11:14:20;;;;;;;29.25;18.58;;;;;;;16.74;100.00;100701.00;5051758;28;20048;-70
2022/11/08 11:16:54;;;;;;;34.33;19.00;;;;;;;16.18;100.00;100692.97;5051371;28;20028;-70
2022/11/08 11:19:20;;;;;;;25.60;18.33;;;;;;;16.19;100.00;100710.88;5049856;28;20030;-72
2022/11/08 11:21:51;;;;;;;30.55;18.38;;;;;;;16.23;100.00;100696.19;5051566;28;20029;-70
2022/11/08 11:24:18;;;;;;;24.50;16.17;;;;;;;16.46;100.00;100698.66;5050246;28;20025;-70
2022/11/08 11:26:56;;;;;;;28.00;16.73;;;;;;;16.35;100.00;100696.56;5050274;28;20405;-72
2022/11/08 11:29:33;;;;;;;22.17;16.92;;;;;;;15.84;100.00;100631.06;5051369;28;20151;-69